sensor_id;sensor_type;location;lat;lon;timestamp;pressure;altitude;pressure_sealevel;temperature;humidity
16580;BME280;8402;51.466;6.806;2024-03-25T00:00:01;100448.47;;;7.96;100.00
16580;BME280;8402;51.466;6.806;2024-03-25T00:02:27;100444.47;;;7.93;100.00
16580;BME280;8402;51.466;6.806;2024-03-25T00:04:53;100449.25;;;7.96;100.00
16580;BME280;8402;51.466;6.806;2024-03-25T00:07:20;100455.16;;;7.98;100.00
16580;BME280;8402;51.466;6.806;2024-03-25T00:09:46;100447.66;;;7.95;100.00
16580;BME280;8402;51.466;6.806;2024-03-25T00:12:12;100457.97;;;7.93;100.00
16580;BME280;8402;51.466;6.806;2024-03-25T00:14:38;100451.47;;;7.94;100.00
16580;BME280;8402;51.466;6.806;2024-03-25T00:17:07;100462.06;;;7.91;100.00
16580;BME280;8402;51.466;6.806;2024-03-25T00:19:33;100458.06;;;7.88;100.00
16580;BME280;8402;51.466;6.806;2024-03-25T00:21:59;100462.47;;;7.84;100.00
16580;BME280;8402;51.466;6.806;2024-03-25T00:24:25;100463.69;;;7.78;100.00
16580;BME280;8402;51.466;6.806;2024-03-25T00:26:51;100461.28;;;7.77;100.00
16580;BME280;8402;51.466;6.806;2024-03-25T00:29:17;100464.28;;;7.75;100.00
16580;BME280;8402;51.466;6.806;2024-03-25T00:31:43;100455.00;;;7.67;100.00
16580;BME280;8402;51.466;6.806;2024-03-25T00:34:12;100449.28;;;7.69;100.00
16580;BME280;8402;51.466;6.806;2024-03-25T00:36:38;100459.91;;;7.65;100.00
16580;BME280;8402;51.466;6.806;2024-03-25T00:39:04;100461.50;;;7.66;100.00
16580;BME280;8402;51.466;6.806;2024-03-25T00:41:30;100461.50;;;7.66;100.00
16580;BME280;8402;51.466;6.806;2024-03-25T00:43:56;100456.41;;;7.65;100.00
16580;BME280;8402;51.466;6.806;2024-03-25T00:46:22;100451.50;;;7.67;100.00
16580;BME280;8402;51.466;6.806;2024-03-25T00:48:48;100455.31;;;7.66;100.00
16580;BME280;8402;51.466;6.806;2024-03-25T00:51:17;100447.50;;;7.64;100.00
16580;BME280;8402;51.466;6.806;2024-03-25T00:53:43;100446.69;;;7.64;100.00
16580;BME280;8402;51.466;6.806;2024-03-25T00:56:09;100446.50;;;7.60;100.00
16580;BME280;8402;51.466;6.806;2024-03-25T00:58:35;100445.50;;;7.56;100.00
16580;BME280;8402;51.466;6.806;2024-03-25T01:01:01;100456.28;;;7.56;100.00
16580;BME280;8402;51.466;6.806;2024-03-25T01:03:27;100442.59;;;7.53;100.00
16580;BME280;8402;51.466;6.806;2024-03-25T01:05:53;100448.31;;;7.51;100.00
16580;BME280;8402;51.466;6.806;2024-03-25T01:08:22;100444.28;;;7.49;100.00
16580;BME280;8402;51.466;6.806;2024-03-25T01:10:48;100448.72;;;7.44;100.00
16580;BME280;8402;51.466;6.806;2024-03-25T01:13:14;100455.50;;;7.42;100.00
16580;BME280;8402;51.466;6.806;2024-03-25T01:15:41;100442.28;;;7.40;100.00
16580;BME280;8402;51.466;6.806;2024-03-25T01:18:07;100450.69;;;7.39;100.00
16580;BME280;8402;51.466;6.806;2024-03-25T01:20:34;100453.72;;;7.37;100.00
16580;BME280;8402;51.466;6.806;2024-03-25T01:23:00;100444.28;;;7.35;100.00
16580;BME280;8402;51.466;6.806;2024-03-25T01:25:28;100449.50;;;7.31;100.00
16580;BME280;8402;51.466;6.806;2024-03-25T01:27:54;100440.91;;;7.29;100.00
16580;BME280;8402;51.466;6.806;2024-03-25T01:30:20;100443.00;;;7.32;100.00
16580;BME280;8402;51.466;6.806;2024-03-25T01:32:46;100439.69;;;7.35;100.00
16580;BME280;8402;51.466;6.806;2024-03-25T01:35:13;100435.13;;;7.36;100.00
16580;BME280;8402;51.466;6.806;2024-03-25T01:37:39;100448.41;;;7.32;100.00
16580;BME280;8402;51.466;6.806;2024-03-25T01:40:07;100446.31;;;7.29;100.00
16580;BME280;8402;51.466;6.806;2024-03-25T01:42:35;100442.59;;;7.25;100.00
16580;BME280;8402;51.466;6.806;2024-03-25T01:45:02;100446.97;;;7.21;100.00
16580;BME280;8402;51.466;6.806;2024-03-25T01:47:28;100451.38;;;7.17;100.00
16580;BME280;8402;51.466;6.806;2024-03-25T01:49:55;100446.06;;;7.12;100.00
16580;BME280;8402;51.466;6.806;2024-03-25T01:52:21;100446.69;;;7.09;100.00
16580;BME280;8402;51.466;6.806;2024-03-25T01:54:48;100451.28;;;7.08;100.00
16580;BME280;8402;51.466;6.806;2024-03-25T01:57:15;100449.38;;;7.09;100.00
16580;BME280;8402;51.466;6.806;2024-03-25T01:59:44;100447.25;;;7.06;100.00
16580;BME280;8402;51.466;6.806;2024-03-25T02:02:11;100461.84;;;7.05;100.00
16580;BME280;8402;51.466;6.806;2024-03-25T02:04:38;100458.16;;;7.01;100.00
16580;BME280;8402;51.466;6.806;2024-03-25T02:07:05;100460.94;;;6.96;100.00
16580;BME280;8402;51.466;6.806;2024-03-25T02:09:33;100465.31;;;6.92;100.00
16580;BME280;8402;51.466;6.806;2024-03-25T02:11:59;100464.00;;;6.89;100.00
16580;BME280;8402;51.466;6.806;2024-03-25T02:14:26;100468.31;;;6.90;100.00
16580;BME280;8402;51.466;6.806;2024-03-25T02:16:55;100459.41;;;6.89;100.00
16580;BME280;8402;51.466;6.806;2024-03-25T02:19:22;100461.00;;;6.90;100.00
16580;BME280;8402;51.466;6.806;2024-03-25T02:21:50;100460.22;;;6.90;100.00
16580;BME280;8402;51.466;6.806;2024-03-25T02:24:17;100462.13;;;6.89;100.00
16580;BME280;8402;51.466;6.806;2024-03-25T02:26:48;100458.41;;;6.85;100.00
16580;BME280;8402;51.466;6.806;2024-03-25T02:29:14;100467.41;;;6.81;100.00
16580;BME280;8402;51.466;6.806;2024-03-25T02:31:40;100462.31;;;6.79;100.00
16580;BME280;8402;51.466;6.806;2024-03-25T02:34:06;100469.38;;;6.75;100.00
16580;BME280;8402;51.466;6.806;2024-03-25T02:36:32;100467.78;;;6.74;100.00
16580;BME280;8402;51.466;6.806;2024-03-25T02:38:59;100476.97;;;6.73;100.00
16580;BME280;8402;51.466;6.806;2024-03-25T02:41:25;100477.53;;;6.70;100.00
16580;BME280;8402;51.466;6.806;2024-03-25T02:43:53;100468.13;;;6.68;100.00
16580;BME280;8402;51.466;6.806;2024-03-25T02:46:20;100469.53;;;6.65;100.00
16580;BME280;8402;51.466;6.806;2024-03-25T02:48:46;100465.22;;;6.64;100.00
16580;BME280;8402;51.466;6.806;2024-03-25T02:51:12;100466.31;;;6.63;100.00
16580;BME280;8402;51.466;6.806;2024-03-25T02:53:38;100476.09;;;6.59;100.00
16580;BME280;8402;51.466;6.806;2024-03-25T02:56:04;100475.38;;;6.53;100.00
16580;BME280;8402;51.466;6.806;2024-03-25T02:58:31;100473.47;;;6.54;100.00
16580;BME280;8402;51.466;6.806;2024-03-25T03:01:00;100480.75;;;6.53;100.00
16580;BME280;8402;51.466;6.806;2024-03-25T03:03:26;100481.56;;;6.54;100.00
16580;BME280;8402;51.466;6.806;2024-03-25T03:05:52;100488.25;;;6.56;100.00
16580;BME280;8402;51.466;6.806;2024-03-25T03:08:18;100479.66;;;6.54;100.00
16580;BME280;8402;51.466;6.806;2024-03-25T03:10:44;100480.03;;;6.48;100.00
16580;BME280;8402;51.466;6.806;2024-03-25T03:13:10;100481.72;;;6.44;100.00
16580;BME280;8402;51.466;6.806;2024-03-25T03:15:36;100473.66;;;6.44;100.00
16580;BME280;8402;51.466;6.806;2024-03-25T03:18:05;100476.03;;;6.45;100.00
16580;BME280;8402;51.466;6.806;2024-03-25T03:20:31;100473.06;;;6.47;100.00
16580;BME280;8402;51.466;6.806;2024-03-25T03:22:57;100474.16;;;6.46;100.00
16580;BME280;8402;51.466;6.806;2024-03-25T03:25:23;100465.56;;;6.44;100.00
16580;BME280;8402;51.466;6.806;2024-03-25T03:27:49;100466.63;;;6.43;100.00
16580;BME280;8402;51.466;6.806;2024-03-25T03:30:16;100459.06;;;6.45;100.00
16580;BME280;8402;51.466;6.806;2024-03-25T03:32:42;100469.56;;;6.46;100.00
16580;BME280;8402;51.466;6.806;2024-03-25T03:35:10;100462.28;;;6.47;100.00
16580;BME280;8402;51.466;6.806;2024-03-25T03:37:37;100466.56;;;6.48;100.00
16580;BME280;8402;51.466;6.806;2024-03-25T03:40:04;100449.38;;;6.44;100.00
16580;BME280;8402;51.466;6.806;2024-03-25T03:42:30;100453.69;;;6.45;100.00
16580;BME280;8402;51.466;6.806;2024-03-25T03:44:56;100444.44;;;6.51;100.00
16580;BME280;8402;51.466;6.806;2024-03-25T03:47:22;100450.81;;;6.55;100.00
16580;BME280;8402;51.466;6.806;2024-03-25T03:49:48;100454.53;;;6.59;100.00
16580;BME280;8402;51.466;6.806;2024-03-25T03:52:17;100459.81;;;6.64;100.00
16580;BME280;8402;51.466;6.806;2024-03-25T03:54:43;100460.34;;;6.66;100.00
16580;BME280;8402;51.466;6.806;2024-03-25T03:57:09;100464.34;;;6.69;100.00
16580;BME280;8402;51.466;6.806;2024-03-25T03:59:36;100461.34;;;6.70;100.00
16580;BME280;8402;51.466;6.806;2024-03-25T04:02:02;100461.34;;;6.70;100.00
16580;BME280;8402;51.466;6.806;2024-03-25T04:04:28;100458.16;;;6.68;100.00
16580;BME280;8402;51.466;6.806;2024-03-25T04:06:54;100458.16;;;6.68;100.00
16580;BME280;8402;51.466;6.806;2024-03-25T04:09:23;100447.97;;;6.65;100.00
16580;BME280;8402;51.466;6.806;2024-03-25T04:11:49;100454.44;;;6.64;100.00
16580;BME280;8402;51.466;6.806;2024-03-25T04:14:15;100457.72;;;6.61;100.00
16580;BME280;8402;51.466;6.806;2024-03-25T04:16:41;100450.75;;;6.60;100.00
16580;BME280;8402;51.466;6.806;2024-03-25T04:19:07;100450.75;;;6.60;100.00
16580;BME280;8402;51.466;6.806;2024-03-25T04:21:33;100455.63;;;6.58;100.00
16580;BME280;8402;51.466;6.806;2024-03-25T04:23:59;100450.50;;;6.56;100.00
16580;BME280;8402;51.466;6.806;2024-03-25T04:26:28;100458.91;;;6.55;100.00
16580;BME280;8402;51.466;6.806;2024-03-25T04:28:54;100451.91;;;6.54;100.00
16580;BME280;8402;51.466;6.806;2024-03-25T04:31:20;100452.41;;;6.56;100.00
16580;BME280;8402;51.466;6.806;2024-03-25T04:33:46;100452.94;;;6.58;100.00
16580;BME280;8402;51.466;6.806;2024-03-25T04:36:12;100461.72;;;6.63;100.00
16580;BME280;8402;51.466;6.806;2024-03-25T04:38:38;100458.75;;;6.65;100.00
16580;BME280;8402;51.466;6.806;2024-03-25T04:41:05;100465.81;;;6.61;100.00
16580;BME280;8402;51.466;6.806;2024-03-25T04:43:33;100459.13;;;6.58;100.00
16580;BME280;8402;51.466;6.806;2024-03-25T04:46:00;100458.81;;;6.60;100.00
16580;BME280;8402;51.466;6.806;2024-03-25T04:48:26;100462.63;;;6.59;100.00
16580;BME280;8402;51.466;6.806;2024-03-25T04:50:53;100468.81;;;6.59;100.00
16580;BME280;8402;51.466;6.806;2024-03-25T04:53:19;100477.47;;;6.56;100.00
16580;BME280;8402;51.466;6.806;2024-03-25T04:55:45;100479.09;;;6.57;100.00
16580;BME280;8402;51.466;6.806;2024-03-25T04:58:11;100477.78;;;6.55;100.00
16580;BME280;8402;51.466;6.806;2024-03-25T05:00:39;100477.78;;;6.55;100.00
16580;BME280;8402;51.466;6.806;2024-03-25T05:03:05;100486.47;;;6.52;100.00
16580;BME280;8402;51.466;6.806;2024-03-25T05:05:31;100484.84;;;6.51;100.00
16580;BME280;8402;51.466;6.806;2024-03-25T05:07:57;100481.38;;;6.50;100.00
16580;BME280;8402;51.466;6.806;2024-03-25T05:10:23;100476.53;;;6.47;100.00
16580;BME280;8402;51.466;6.806;2024-03-25T05:12:50;100476.84;;;6.46;100.00
16580;BME280;8402;51.466;6.806;2024-03-25T05:15:16;100479.03;;;6.44;100.00
16580;BME280;8402;51.466;6.806;2024-03-25T05:17:44;100483.31;;;6.45;100.00
16580;BME280;8402;51.466;6.806;2024-03-25T05:20:11;100485.66;;;6.51;100.00
16580;BME280;8402;51.466;6.806;2024-03-25T05:22:37;100479.66;;;6.54;100.00
16580;BME280;8402;51.466;6.806;2024-03-25T05:25:04;100481.25;;;6.55;100.00
16580;BME280;8402;51.466;6.806;2024-03-25T05:27:30;100482.66;;;6.53;100.00
16580;BME280;8402;51.466;6.806;2024-03-25T05:29:56;100474.06;;;6.51;100.00
16580;BME280;8402;51.466;6.806;2024-03-25T05:32:22;100478.38;;;6.52;100.00
16580;BME280;8402;51.466;6.806;2024-03-25T05:34:51;100485.44;;;6.48;100.00
16580;BME280;8402;51.466;6.806;2024-03-25T05:37:17;100483.81;;;6.47;100.00
16580;BME280;8402;51.466;6.806;2024-03-25T05:39:43;100489.22;;;6.47;100.00
16580;BME280;8402;51.466;6.806;2024-03-25T05:42:09;100482.22;;;6.46;100.00
16580;BME280;8402;51.466;6.806;2024-03-25T05:44:35;100486.53;;;6.47;100.00
16580;BME280;8402;51.466;6.806;2024-03-25T05:47:01;100488.13;;;6.48;100.00
16580;BME280;8402;51.466;6.806;2024-03-25T05:49:28;100484.44;;;6.44;100.00
16580;BME280;8402;51.466;6.806;2024-03-25T05:51:56;100491.19;;;6.41;100.00
16580;BME280;8402;51.466;6.806;2024-03-25T05:54:22;100497.38;;;6.42;100.00
16580;BME280;8402;51.466;6.806;2024-03-25T05:56:48;100497.97;;;6.39;100.00
16580;BME280;8402;51.466;6.806;2024-03-25T05:59:14;100488.84;;;6.34;100.00
16580;BME280;8402;51.466;6.806;2024-03-25T06:01:40;100489.94;;;6.33;100.00
16580;BME280;8402;51.466;6.806;2024-03-25T06:04:07;100485.88;;;6.36;100.00
16580;BME280;8402;51.466;6.806;2024-03-25T06:06:33;100487.19;;;6.39;100.00
16580;BME280;8402;51.466;6.806;2024-03-25T06:09:01;100477.41;;;6.43;100.00
16580;BME280;8402;51.466;6.806;2024-03-25T06:11:27;100486.22;;;6.48;100.00
16580;BME280;8402;51.466;6.806;2024-03-25T06:13:53;100487.03;;;6.49;100.00
16580;BME280;8402;51.466;6.806;2024-03-25T06:16:19;100495.63;;;6.51;100.00
16580;BME280;8402;51.466;6.806;2024-03-25T06:18:45;100499.63;;;6.53;100.00
16580;BME280;8402;51.466;6.806;2024-03-25T06:21:12;100508.22;;;6.55;100.00
16580;BME280;8402;51.466;6.806;2024-03-25T06:23:38;100494.44;;;6.57;100.00
16580;BME280;8402;51.466;6.806;2024-03-25T06:26:07;100502.25;;;6.58;100.00
16580;BME280;8402;51.466;6.806;2024-03-25T06:28:33;100490.88;;;6.61;100.00
16580;BME280;8402;51.466;6.806;2024-03-25T06:30:59;100487.88;;;6.63;100.00
16580;BME280;8402;51.466;6.806;2024-03-25T06:33:40;100490.50;;;6.68;100.00
16580;BME280;8402;51.466;6.806;2024-03-25T06:36:21;100496.94;;;6.72;100.00
16580;BME280;8402;51.466;6.806;2024-03-25T06:38:47;100489.53;;;6.78;100.00
16580;BME280;8402;51.466;6.806;2024-03-25T06:41:16;100489.69;;;6.86;100.00
16580;BME280;8402;51.466;6.806;2024-03-25T06:43:42;100489.44;;;7.02;100.00
16580;BME280;8402;51.466;6.806;2024-03-25T06:46:08;100486.97;;;7.19;100.00
16580;BME280;8402;51.466;6.806;2024-03-25T06:48:35;100490.16;;;7.35;100.00
16580;BME280;8402;51.466;6.806;2024-03-25T06:51:01;100486.50;;;7.58;100.00
16580;BME280;8402;51.466;6.806;2024-03-25T06:53:27;100488.50;;;7.80;100.00
16580;BME280;8402;51.466;6.806;2024-03-25T06:55:55;100490.28;;;7.98;100.00
16580;BME280;8402;51.466;6.806;2024-03-25T06:58:25;100492.56;;;8.05;100.00
16580;BME280;8402;51.466;6.806;2024-03-25T07:00:53;100491.28;;;8.03;100.00
16580;BME280;8402;51.466;6.806;2024-03-25T07:03:20;100489.97;;;8.00;100.00
16580;BME280;8402;51.466;6.806;2024-03-25T07:05:46;100487.88;;;7.97;100.00
16580;BME280;8402;51.466;6.806;2024-03-25T07:08:16;100491.38;;;7.97;100.00
16580;BME280;8402;51.466;6.806;2024-03-25T07:10:42;100488.69;;;7.97;100.00
16580;BME280;8402;51.466;6.806;2024-03-25T07:13:08;100494.69;;;7.94;100.00
16580;BME280;8402;51.466;6.806;2024-03-25T07:15:37;100495.09;;;8.02;100.00
16580;BME280;8402;51.466;6.806;2024-03-25T07:18:04;100501.47;;;8.06;100.00
16580;BME280;8402;51.466;6.806;2024-03-25T07:20:30;100495.47;;;8.09;100.00
16580;BME280;8402;51.466;6.806;2024-03-25T07:22:56;100491.06;;;8.13;100.00
16580;BME280;8402;51.466;6.806;2024-03-25T07:25:22;100488.88;;;8.15;100.00
16580;BME280;8402;51.466;6.806;2024-03-25T07:27:48;100488.25;;;8.18;100.00
16580;BME280;8402;51.466;6.806;2024-03-25T07:30:15;100496.75;;;8.25;100.00
16580;BME280;8402;51.466;6.806;2024-03-25T07:32:43;100484.81;;;8.40;100.00
16580;BME280;8402;51.466;6.806;2024-03-25T07:35:10;100484.41;;;8.46;100.00
16580;BME280;8402;51.466;6.806;2024-03-25T07:37:36;100491.41;;;8.47;100.00
16580;BME280;8402;51.466;6.806;2024-03-25T07:40:02;100485.19;;;8.69;100.00
16580;BME280;8402;51.466;6.806;2024-03-25T07:42:29;100489.63;;;8.88;100.00
16580;BME280;8402;51.466;6.806;2024-03-25T07:44:55;100492.03;;;8.89;100.00
16580;BME280;8402;51.466;6.806;2024-03-25T07:47:21;100487.97;;;9.00;100.00
16580;BME280;8402;51.466;6.806;2024-03-25T07:49:50;100489.66;;;9.19;100.00
16580;BME280;8402;51.466;6.806;2024-03-25T07:52:16;100485.22;;;9.23;100.00
16580;BME280;8402;51.466;6.806;2024-03-25T07:54:43;100482.97;;;9.56;100.00
16580;BME280;8402;51.466;6.806;2024-03-25T07:57:09;100487.66;;;9.73;100.00
16580;BME280;8402;51.466;6.806;2024-03-25T07:59:35;100484.66;;;9.83;99.55
16580;BME280;8402;51.466;6.806;2024-03-25T08:02:01;100485.66;;;10.13;100.00
16580;BME280;8402;51.466;6.806;2024-03-25T08:04:27;100478.56;;;10.43;97.15
16580;BME280;8402;51.466;6.806;2024-03-25T08:06:56;100479.81;;;10.63;95.63
16580;BME280;8402;51.466;6.806;2024-03-25T08:09:22;100481.56;;;10.93;98.03
16580;BME280;8402;51.466;6.806;2024-03-25T08:11:48;100481.94;;;11.30;97.53
16580;BME280;8402;51.466;6.806;2024-03-25T08:14:14;100479.00;;;11.44;95.99
16580;BME280;8402;51.466;6.806;2024-03-25T08:16:40;100486.97;;;11.49;95.42
16580;BME280;8402;51.466;6.806;2024-03-25T08:19:06;100480.00;;;11.69;94.68
16580;BME280;8402;51.466;6.806;2024-03-25T08:21:32;100481.06;;;11.76;92.35
16580;BME280;8402;51.466;6.806;2024-03-25T08:24:01;100479.50;;;11.75;91.80
16580;BME280;8402;51.466;6.806;2024-03-25T08:26:27;100482.06;;;11.80;92.34
16580;BME280;8402;51.466;6.806;2024-03-25T08:28:53;100486.31;;;11.90;91.09
16580;BME280;8402;51.466;6.806;2024-03-25T08:31:19;100478.91;;;12.20;91.37
16580;BME280;8402;51.466;6.806;2024-03-25T08:33:45;100479.97;;;12.49;89.38
16580;BME280;8402;51.466;6.806;2024-03-25T08:36:11;100476.19;;;12.62;85.44
16580;BME280;8402;51.466;6.806;2024-03-25T08:38:38;100470.38;;;12.84;85.40
16580;BME280;8402;51.466;6.806;2024-03-25T08:41:07;100473.13;;;12.97;83.62
16580;BME280;8402;51.466;6.806;2024-03-25T08:43:33;100482.69;;;13.03;83.12
16580;BME280;8402;51.466;6.806;2024-03-25T08:45:59;100472.09;;;13.22;83.84
16580;BME280;8402;51.466;6.806;2024-03-25T08:48:25;100474.63;;;13.39;81.00
16580;BME280;8402;51.466;6.806;2024-03-25T08:50:51;100464.66;;;13.43;80.67
16580;BME280;8402;51.466;6.806;2024-03-25T08:53:17;100467.84;;;13.58;80.04
16580;BME280;8402;51.466;6.806;2024-03-25T08:55:45;100469.88;;;13.73;79.61
16580;BME280;8402;51.466;6.806;2024-03-25T08:58:15;100476.78;;;13.70;78.80
16580;BME280;8402;51.466;6.806;2024-03-25T09:00:41;100475.53;;;13.80;79.51
16580;BME280;8402;51.466;6.806;2024-03-25T09:03:07;100479.50;;;13.70;77.00
16580;BME280;8402;51.466;6.806;2024-03-25T09:05:34;100485.28;;;13.57;77.16
16580;BME280;8402;51.466;6.806;2024-03-25T09:08:00;100489.84;;;13.77;77.65
16580;BME280;8402;51.466;6.806;2024-03-25T09:10:26;100488.59;;;13.99;75.04
16580;BME280;8402;51.466;6.806;2024-03-25T09:13:07;100500.28;;;14.12;74.50
16580;BME280;8402;51.466;6.806;2024-03-25T09:15:36;100488.41;;;14.32;74.78
16580;BME280;8402;51.466;6.806;2024-03-25T09:18:03;100489.06;;;14.53;75.21
16580;BME280;8402;51.466;6.806;2024-03-25T09:20:29;100488.47;;;14.60;69.91
16580;BME280;8402;51.466;6.806;2024-03-25T09:22:55;100490.13;;;14.37;69.40
16580;BME280;8402;51.466;6.806;2024-03-25T09:25:21;100484.31;;;14.38;70.93
16580;BME280;8402;51.466;6.806;2024-03-25T09:27:47;100483.97;;;14.52;71.85
16580;BME280;8402;51.466;6.806;2024-03-25T09:30:14;100474.53;;;14.37;66.98
16580;BME280;8402;51.466;6.806;2024-03-25T09:32:43;100478.63;;;14.43;70.47
16580;BME280;8402;51.466;6.806;2024-03-25T09:35:09;100469.13;;;14.65;71.44
16580;BME280;8402;51.466;6.806;2024-03-25T09:37:36;100475.06;;;14.83;70.83
16580;BME280;8402;51.466;6.806;2024-03-25T09:40:03;100473.69;;;14.89;71.29
16580;BME280;8402;51.466;6.806;2024-03-25T09:42:34;100475.44;;;14.97;69.32
16580;BME280;8402;51.466;6.806;2024-03-25T09:45:01;100465.44;;;15.01;67.54
16580;BME280;8402;51.466;6.806;2024-03-25T09:47:28;100458.63;;;15.11;70.27
16580;BME280;8402;51.466;6.806;2024-03-25T09:49:59;100465.25;;;15.26;70.08
16580;BME280;8402;51.466;6.806;2024-03-25T09:52:28;100476.38;;;15.33;68.61
16580;BME280;8402;51.466;6.806;2024-03-25T09:54:54;100467.50;;;15.36;70.48
16580;BME280;8402;51.466;6.806;2024-03-25T09:57:20;100458.03;;;15.49;71.39
16580;BME280;8402;51.466;6.806;2024-03-25T09:59:47;100454.16;;;15.50;69.45
16580;BME280;8402;51.466;6.806;2024-03-25T10:02:14;100450.44;;;15.58;69.35
16580;BME280;8402;51.466;6.806;2024-03-25T10:04:45;100450.34;;;15.55;65.08
16580;BME280;8402;51.466;6.806;2024-03-25T10:07:21;100443.91;;;15.47;64.16
16580;BME280;8402;51.466;6.806;2024-03-25T10:09:47;100427.00;;;15.57;67.15
16580;BME280;8402;51.466;6.806;2024-03-25T10:12:13;100434.50;;;15.45;66.23
16580;BME280;8402;51.466;6.806;2024-03-25T10:14:39;100445.69;;;15.24;66.20
16580;BME280;8402;51.466;6.806;2024-03-25T10:17:05;100435.09;;;15.06;63.55
16580;BME280;8402;51.466;6.806;2024-03-25T10:19:32;100438.78;;;14.82;63.96
16580;BME280;8402;51.466;6.806;2024-03-25T10:22:03;100430.63;;;14.70;65.12
16580;BME280;8402;51.466;6.806;2024-03-25T10:24:39;100442.38;;;14.30;60.37
16580;BME280;8402;51.466;6.806;2024-03-25T10:27:06;100429.72;;;14.50;66.29
16580;BME280;8402;51.466;6.806;2024-03-25T10:29:35;100429.78;;;14.82;68.52
16580;BME280;8402;51.466;6.806;2024-03-25T10:32:01;100415.44;;;15.17;68.28
16580;BME280;8402;51.466;6.806;2024-03-25T10:34:27;100419.56;;;15.42;67.08
16580;BME280;8402;51.466;6.806;2024-03-25T10:36:57;100404.38;;;15.60;66.34
16580;BME280;8402;51.466;6.806;2024-03-25T10:39:27;100407.22;;;15.48;60.36
16580;BME280;8402;51.466;6.806;2024-03-25T10:41:59;100402.75;;;15.24;60.98
16580;BME280;8402;51.466;6.806;2024-03-25T10:44:26;100385.91;;;15.38;63.25
16580;BME280;8402;51.466;6.806;2024-03-25T10:46:56;100392.06;;;15.35;62.74
16580;BME280;8402;51.466;6.806;2024-03-25T10:49:33;100395.59;;;15.20;59.02
16580;BME280;8402;51.466;6.806;2024-03-25T10:52:01;100386.44;;;15.28;63.81
16580;BME280;8402;51.466;6.806;2024-03-25T10:54:30;100375.31;;;15.52;63.28
16580;BME280;8402;51.466;6.806;2024-03-25T10:57:00;100377.38;;;15.75;63.38
16580;BME280;8402;51.466;6.806;2024-03-25T10:59:29;100370.84;;;15.99;64.80
16580;BME280;8402;51.466;6.806;2024-03-25T11:01:56;100374.19;;;16.08;62.59
16580;BME280;8402;51.466;6.806;2024-03-25T11:04:23;100369.78;;;16.03;61.83
16580;BME280;8402;51.466;6.806;2024-03-25T11:06:50;100366.34;;;15.71;59.26
16580;BME280;8402;51.466;6.806;2024-03-25T11:09:23;100360.31;;;15.46;59.64
16580;BME280;8402;51.466;6.806;2024-03-25T11:11:51;100359.81;;;15.25;60.33
16580;BME280;8402;51.466;6.806;2024-03-25T11:14:20;100356.09;;;15.33;61.85
16580;BME280;8402;51.466;6.806;2024-03-25T11:16:51;100355.31;;;15.32;59.50
16580;BME280;8402;51.466;6.806;2024-03-25T11:19:18;100345.88;;;15.30;62.00
16580;BME280;8402;51.466;6.806;2024-03-25T11:21:44;100345.88;;;15.30;64.01
16580;BME280;8402;51.466;6.806;2024-03-25T11:24:10;100341.44;;;15.41;64.70
16580;BME280;8402;51.466;6.806;2024-03-25T11:26:41;100338.72;;;15.41;63.54
16580;BME280;8402;51.466;6.806;2024-03-25T11:29:07;100340.81;;;15.48;63.83
16580;BME280;8402;51.466;6.806;2024-03-25T11:31:38;100322.34;;;15.60;64.58
16580;BME280;8402;51.466;6.806;2024-03-25T11:34:06;100324.91;;;15.69;62.57
16580;BME280;8402;51.466;6.806;2024-03-25T11:36:32;100325.84;;;15.77;62.84
16580;BME280;8402;51.466;6.806;2024-03-25T11:38:58;100320.59;;;15.87;63.33
16580;BME280;8402;51.466;6.806;2024-03-25T11:41:25;100319.16;;;15.93;63.72
16580;BME280;8402;51.466;6.806;2024-03-25T11:43:51;100320.81;;;15.98;63.81
16580;BME280;8402;51.466;6.806;2024-03-25T11:46:18;100316.84;;;15.95;62.64
16580;BME280;8402;51.466;6.806;2024-03-25T11:48:47;100316.69;;;15.69;59.03
16580;BME280;8402;51.466;6.806;2024-03-25T11:51:16;100323.47;;;15.40;56.23
16580;BME280;8402;51.466;6.806;2024-03-25T11:53:42;100317.13;;;15.36;60.67
16580;BME280;8402;51.466;6.806;2024-03-25T11:56:09;100321.88;;;15.39;61.82
16580;BME280;8402;51.466;6.806;2024-03-25T11:58:35;100313.56;;;15.51;62.72
16580;BME280;8402;51.466;6.806;2024-03-25T12:01:01;100311.41;;;15.60;63.49
16580;BME280;8402;51.466;6.806;2024-03-25T12:03:27;100307.47;;;15.77;64.01
16580;BME280;8402;51.466;6.806;2024-03-25T12:05:56;100302.94;;;15.85;62.57
16580;BME280;8402;51.466;6.806;2024-03-25T12:08:23;100303.53;;;15.94;63.15
16580;BME280;8402;51.466;6.806;2024-03-25T12:10:50;100295.75;;;15.96;63.36
16580;BME280;8402;51.466;6.806;2024-03-25T12:13:31;100290.66;;;15.75;60.59
16580;BME280;8402;51.466;6.806;2024-03-25T12:15:57;100286.69;;;15.73;62.49
16580;BME280;8402;51.466;6.806;2024-03-25T12:18:23;100278.81;;;15.71;60.55
16580;BME280;8402;51.466;6.806;2024-03-25T12:20:49;100280.06;;;15.74;61.89
16580;BME280;8402;51.466;6.806;2024-03-25T12:23:18;100276.47;;;15.69;57.82
16580;BME280;8402;51.466;6.806;2024-03-25T12:25:48;100271.09;;;15.38;55.92
16580;BME280;8402;51.466;6.806;2024-03-25T12:28:14;100265.78;;;15.45;59.22
16580;BME280;8402;51.466;6.806;2024-03-25T12:30:49;100247.28;;;15.58;58.34
16580;BME280;8402;51.466;6.806;2024-03-25T12:33:16;100250.53;;;15.63;59.45
16580;BME280;8402;51.466;6.806;2024-03-25T12:35:42;100244.56;;;15.77;59.97
16580;BME280;8402;51.466;6.806;2024-03-25T12:38:24;100244.06;;;15.91;56.78
16580;BME280;8402;51.466;6.806;2024-03-25T12:40:50;100245.56;;;16.08;59.20
16580;BME280;8402;51.466;6.806;2024-03-25T12:43:16;100243.53;;;16.05;58.18
16580;BME280;8402;51.466;6.806;2024-03-25T12:45:43;100236.94;;;15.86;53.56
16580;BME280;8402;51.466;6.806;2024-03-25T12:48:09;100234.13;;;15.83;55.87
16580;BME280;8402;51.466;6.806;2024-03-25T12:50:35;100232.00;;;15.73;55.08
16580;BME280;8402;51.466;6.806;2024-03-25T12:53:01;100231.34;;;15.79;56.55
16580;BME280;8402;51.466;6.806;2024-03-25T12:55:30;100226.06;;;15.90;55.73
16580;BME280;8402;51.466;6.806;2024-03-25T12:57:57;100232.16;;;16.03;56.27